< < Back
Terminal Aerodrome Forecast


Current Version              Previous Versions:   1  2  3  4  5  6  7  8  9  

Terminal Aerodrome Forecast

778
FTUS42 KCAE 200500
TAFCAE
TAF
KCAE 200526Z 2006/2106 03012G21KT P6SM VCSH OVC015
      TEMPO 2006/2008 4SM -RADZ BR BKN025
     FM200800 03013G23KT P6SM SCT015 OVC025
     FM201100 03012G22KT P6SM SCT020 OVC035
     FM202000 02017G25KT P6SM BKN050
     FM210000 03009KT P6SM FEW250=



Latest METAR

400
SAUS80 KWBC 200800 CCA
MTRCAE
METAR KCAE 200756Z 04008G14KT 7SM -RA OVC028 12/07 A3012 RMK AO2 RAB49
SLP199 P0000 T01220072


USA.gov is the U.S. government's official web portal to all federal, state and local government web resources and services.